首页
METAR-TAF:

METAR-TAF

机场 :

赤塔機場

赤塔, 俄罗斯

纬度: 52-05N, 经度: 113-29E, 海拔: 685米

当前天气观测

该预报发布于30分钟前的15:00 UTC
风速6节,风向西南
温度 14°C
湿度 77%
气压 1012 hPa
能见度10公里或以上

METAR: UIAA 161500Z AUTO 22003MPS 9999 NCD 14/10 Q1012 RMK QFE700/0934

时间: 00:30 (15:30 UTC)

预报

该预报发布于1小时和30分钟前的14:00 UTC
预报有效从16日的 15点(UTC)到 17日的 15点(UTC)
风速6节,风向南转西南,有时为16节阵风
能见度10公里或以上
散云层高于4000英尺, 积雨云.
短暂存在
从 16日的 18点(UTC)到 17日的 01点(UTC)
能見度: 0500
层高于100英尺
短暂存在
从 17日的 03点(UTC)到 17日的 12点(UTC)
风速14节,风向西,有时为23节阵风

TAF: UIAA 161400Z 1615/1715 21003G08MPS 9999 SCT040CB TEMPO 1618/1701 0500 FG VV001 TEMPO 1703/1712 28007G12MPS

超过4000个机场的气象观测和天气预报(METAR&TAF报告)。

可查询的气象台以黄色和红色小点在地图上表示。

将鼠标移到小点上方,可查看气象台名称。

然后点击查看天气观测和预报。

如需切换地图:点击带黑十字的绿色按钮放大地图;点击带横线的绿色按钮缩小地图;或者点击绿色箭头查看邻近地区的地图。


METAR-TAF: